Time;durP1;ratioP1;P1;durP2;ratioP2;P2;SDS_P1;SDS_P2;PMS_P1;PMS_P2;Temp;Humidity;BMP_temperature;BMP_pressure;BME280_temperature;BME280_humidity;BME280_pressure;Samples;Min_cycle;Max_cycle;Signal;HPM_P1;HPM_P2
2022/01/30 00:00:39;;;;;;;;;;;23.30;46.30;;;;;;1612235;73;759;-73
2022/01/30 00:02:41;;;;;;;;;;;23.30;46.30;;;;;;1608293;73;683;-73
2022/01/30 00:04:43;;;;;;;;;;;23.20;46.30;;;;;;1612171;73;1926;-73
2022/01/30 00:06:45;;;;;;;;;;;23.20;46.30;;;;;;1612015;73;752;-73
2022/01/30 00:08:48;;;;;;;;;;;23.20;46.30;;;;;;1611778;73;1131;-72
2022/01/30 00:10:56;;;;;;;;;;;23.10;46.30;;;;;;1610260;73;757;-73
2022/01/30 00:12:57;;;;;;;;;;;23.30;46.30;;;;;;1600993;73;1154;-74
2022/01/30 00:14:57;;;;;;;;;;;23.20;46.20;;;;;;1594469;73;1150;-73
2022/01/30 00:17:08;;;;;;;;;;;23.30;46.30;;;;;;1608585;73;735;-74
2022/01/30 00:19:14;;;;;;;;;;;23.20;46.30;;;;;;1611535;73;1156;-75
2022/01/30 00:21:16;;;;;;;;;;;23.20;46.30;;;;;;1605205;73;1129;-74
2022/01/30 00:23:20;;;;;;;;;;;23.20;46.30;;;;;;1610025;73;1127;-74
2022/01/30 00:25:25;;;;;;;;;;;23.20;46.30;;;;;;1600348;73;1922;-73
2022/01/30 00:27:28;;;;;;;;;;;23.20;46.30;;;;;;1611486;73;1144;-74
2022/01/30 00:29:23;;;;;;;;;;;23.10;46.40;;;;;;1606247;73;1109;-73
2022/01/30 00:31:26;;;;;;;;;;;23.20;46.50;;;;;;1597820;73;709;-73
2022/01/30 00:33:28;;;;;;;;;;;23.20;46.50;;;;;;1597345;73;693;-74
2022/01/30 00:35:33;;;;;;;;;;;23.20;46.50;;;;;;1609055;73;742;-74
2022/01/30 00:37:39;;;;;;;;;;;23.20;46.60;;;;;;1609873;73;1197;-74
2022/01/30 00:39:38;;;;;;;;;;;23.20;46.50;;;;;;1608992;73;1048;-74
2022/01/30 00:41:39;;;;;;;;;;;23.20;46.50;;;;;;1610534;73;740;-73
2022/01/30 00:43:41;;;;;;;;;;;23.20;46.50;;;;;;1610268;73;923;-72
2022/01/30 00:45:43;;;;;;;;;;;23.20;46.50;;;;;;1615861;73;1926;-75
2022/01/30 00:47:45;;;;;;;;;;;23.20;46.50;;;;;;1612298;73;784;-73
2022/01/30 00:49:47;;;;;;;;;;;23.20;46.50;;;;;;1604389;73;1168;-73
2022/01/30 00:51:49;;;;;;;;;;;23.20;46.50;;;;;;1606342;73;749;-72
2022/01/30 00:53:51;;;;;;;;;;;23.20;46.60;;;;;;1616629;73;859;-72
2022/01/30 00:55:53;;;;;;;;;;;23.20;46.70;;;;;;1615048;73;718;-73
2022/01/30 00:57:55;;;;;;;;;;;23.20;46.70;;;;;;1609227;73;1178;-73
2022/01/30 00:59:57;;;;;;;;;;;23.20;46.70;;;;;;1612503;73;680;-73
2022/01/30 01:01:58;;;;;;;;;;;23.20;46.80;;;;;;1610973;73;621;-73
2022/01/30 01:04:00;;;;;;;;;;;23.20;46.80;;;;;;1582765;73;3061;-72
2022/01/30 01:06:05;;;;;;;;;;;23.20;46.70;;;;;;1581000;75;1946;-70
2022/01/30 01:08:28;;;;;;;;;;;23.20;46.80;;;;;;1578239;75;1772;-70
2022/01/30 01:10:36;;;;;;;;;;;23.20;46.80;;;;;;1565640;75;1619;-71
2022/01/30 01:23:40;;;;;;;;;;;23.20;47.00;;;;;;1570116;75;1088;-72
2022/01/30 01:25:38;;;;;;;;;;;23.20;47.00;;;;;;1574768;75;1925;-69
2022/01/30 01:27:40;;;;;;;;;;;23.10;47.10;;;;;;1565116;75;824;-71
2022/01/30 01:29:42;;;;;;;;;;;23.20;47.10;;;;;;1581172;75;772;-72
2022/01/30 01:31:44;;;;;;;;;;;23.20;47.10;;;;;;1581190;75;803;-72
2022/01/30 01:34:01;;;;;;;;;;;23.10;47.20;;;;;;1578431;75;1134;-69
2022/01/30 01:35:49;;;;;;;;;;;23.20;47.20;;;;;;1570020;75;1619;-70
2022/01/30 01:37:54;;;;;;;;;;;23.20;47.20;;;;;;1579134;75;798;-72
2022/01/30 01:39:55;;;;;;;;;;;23.20;47.20;;;;;;1578090;75;1662;-70
2022/01/30 01:41:57;;;;;;;;;;;23.20;47.20;;;;;;1581085;75;783;-72
2022/01/30 01:43:58;;;;;;;;;;;23.20;47.30;;;;;;1572698;75;1123;-72
2022/01/30 01:46:01;;;;;;;;;;;23.20;47.30;;;;;;1574467;75;1945;-70
2022/01/30 01:48:09;;;;;;;;;;;23.20;47.30;;;;;;1575244;75;802;-73
2022/01/30 01:50:15;;;;;;;;;;;23.30;47.40;;;;;;1557625;75;1669;-70
2022/01/30 01:52:21;;;;;;;;;;;23.20;47.40;;;;;;1557876;75;1457;-70
2022/01/30 01:54:22;;;;;;;;;;;23.20;47.40;;;;;;1552718;76;1679;-70
2022/01/30 01:56:24;;;;;;;;;;;23.30;47.50;;;;;;1553033;76;698;-70
2022/01/30 01:58:27;;;;;;;;;;;23.20;47.50;;;;;;1565995;75;774;-70
2022/01/30 02:00:28;;;;;;;;;;;23.20;47.60;;;;;;1567090;75;802;-70
2022/01/30 02:02:30;;;;;;;;;;;23.30;47.60;;;;;;1560254;75;804;-71
2022/01/30 02:04:32;;;;;;;;;;;23.20;47.60;;;;;;1553032;75;1152;-73
2022/01/30 02:06:34;;;;;;;;;;;23.20;47.60;;;;;;1584488;75;1935;-74
2022/01/30 02:09:05;;;;;;;;;;;23.20;47.60;;;;;;1584456;75;792;-72
2022/01/30 02:13:16;;;;;;;;;;;23.20;47.60;;;;;;1526860;78;1671;-71
2022/01/30 02:24:14;;;;;;;;;;;23.20;47.70;;;;;;1552912;76;1655;-71
2022/01/30 02:26:11;;;;;;;;;;;23.20;47.70;;;;;;1552149;76;1939;-72
2022/01/30 02:28:17;;;;;;;;;;;23.20;47.70;;;;;;1552978;76;714;-73
2022/01/30 02:30:21;;;;;;;;;;;23.20;47.80;;;;;;1552380;76;1669;-71
2022/01/30 02:32:23;;;;;;;;;;;23.20;47.80;;;;;;1553038;76;607;-72
2022/01/30 02:34:26;;;;;;;;;;;23.20;47.80;;;;;;1552957;76;1123;-72
2022/01/30 02:36:28;;;;;;;;;;;23.20;47.90;;;;;;1552616;76;1882;-72
2022/01/30 02:38:31;;;;;;;;;;;23.20;47.90;;;;;;1531281;76;572;-74
2022/01/30 02:40:38;;;;;;;;;;;23.20;47.80;;;;;;1526922;78;749;-72
2022/01/30 02:42:40;;;;;;;;;;;23.20;47.90;;;;;;1526968;78;1731;-74
2022/01/30 02:44:47;;;;;;;;;;;23.20;47.90;;;;;;1546380;77;1650;-72
2022/01/30 02:46:47;;;;;;;;;;;23.20;47.90;;;;;;1550045;76;1935;-71
2022/01/30 02:48:54;;;;;;;;;;;23.30;48.00;;;;;;1529206;76;1756;-71
2022/01/30 02:51:06;;;;;;;;;;;23.20;47.90;;;;;;1552386;76;1467;-72
2022/01/30 02:52:57;;;;;;;;;;;23.30;47.90;;;;;;1550890;76;1676;-76
2022/01/30 02:54:59;;;;;;;;;;;23.30;48.00;;;;;;1552914;76;729;-72
2022/01/30 02:57:01;;;;;;;;;;;23.30;48.00;;;;;;1552978;76;672;-75
2022/01/30 02:59:03;;;;;;;;;;;23.20;47.90;;;;;;1552557;76;640;-72
2022/01/30 03:01:05;;;;;;;;;;;23.30;48.00;;;;;;1552921;76;728;-71
2022/01/30 03:03:07;;;;;;;;;;;23.30;48.00;;;;;;1552901;76;1137;-71
2022/01/30 03:05:09;;;;;;;;;;;23.30;48.00;;;;;;1552821;76;1947;-72
2022/01/30 03:07:10;;;;;;;;;;;23.20;47.90;;;;;;1552563;76;790;-71
2022/01/30 03:09:12;;;;;;;;;;;23.20;48.00;;;;;;1553046;75;777;-70
2022/01/30 03:11:14;;;;;;;;;;;23.30;48.00;;;;;;1553044;76;731;-72
2022/01/30 03:13:16;;;;;;;;;;;23.20;47.90;;;;;;1552953;76;1165;-74
2022/01/30 03:15:18;;;;;;;;;;;23.20;47.90;;;;;;1536883;76;720;-70
2022/01/30 03:17:20;;;;;;;;;;;23.20;47.80;;;;;;1527001;78;750;-71
2022/01/30 03:19:22;;;;;;;;;;;23.30;48.00;;;;;;1536965;76;791;-71
2022/01/30 03:21:24;;;;;;;;;;;23.20;47.90;;;;;;1553053;76;718;-71
2022/01/30 03:23:25;;;;;;;;;;;23.20;47.90;;;;;;1552913;76;1140;-71
2022/01/30 03:25:30;;;;;;;;;;;23.20;47.90;;;;;;1552945;76;1942;-72
2022/01/30 03:27:31;;;;;;;;;;;23.20;48.00;;;;;;1552309;76;1671;-71
2022/01/30 03:29:34;;;;;;;;;;;23.20;47.90;;;;;;1552939;76;666;-70
2022/01/30 03:31:37;;;;;;;;;;;23.30;48.10;;;;;;1552966;76;671;-71
2022/01/30 03:33:39;;;;;;;;;;;23.30;48.10;;;;;;1552916;76;1118;-71
2022/01/30 03:35:41;;;;;;;;;;;23.30;48.10;;;;;;1552269;76;704;-70
2022/01/30 03:37:43;;;;;;;;;;;23.30;48.10;;;;;;1553077;76;782;-71
2022/01/30 03:39:45;;;;;;;;;;;23.30;48.10;;;;;;1552945;76;668;-72
2022/01/30 03:41:46;;;;;;;;;;;23.40;48.00;;;;;;1552923;76;710;-70
2022/01/30 03:43:48;;;;;;;;;;;23.40;47.90;;;;;;1550940;75;1158;-71
2022/01/30 03:45:50;;;;;;;;;;;23.40;47.90;;;;;;1552470;76;1942;-71
2022/01/30 03:47:55;;;;;;;;;;;23.40;47.90;;;;;;1553009;76;719;-70
2022/01/30 03:49:56;;;;;;;;;;;23.40;47.80;;;;;;1552251;76;1690;-70
2022/01/30 03:51:57;;;;;;;;;;;23.60;47.90;;;;;;1552861;76;791;-70
2022/01/30 03:53:59;;;;;;;;;;;23.40;47.70;;;;;;1552985;76;1149;-71
2022/01/30 03:56:01;;;;;;;;;;;23.50;47.80;;;;;;1552964;76;788;-72
2022/01/30 03:58:03;;;;;;;;;;;23.60;47.90;;;;;;1552305;76;711;-73
2022/01/30 04:00:07;;;;;;;;;;;23.60;47.90;;;;;;1553062;75;738;-75
2022/01/30 04:02:09;;;;;;;;;;;23.60;47.80;;;;;;1552851;76;724;-72
2022/01/30 04:04:11;;;;;;;;;;;23.70;47.80;;;;;;1552848;76;1129;-72
2022/01/30 04:06:13;;;;;;;;;;;23.60;47.60;;;;;;1552814;76;1940;-78
2022/01/30 04:08:15;;;;;;;;;;;23.60;47.60;;;;;;1527644;76;773;-71
2022/01/30 04:10:17;;;;;;;;;;;23.60;47.60;;;;;;1548693;75;785;-71
2022/01/30 04:12:18;;;;;;;;;;;23.70;47.60;;;;;;1552910;76;778;-71
2022/01/30 04:14:20;;;;;;;;;;;23.70;47.60;;;;;;1552791;76;1201;-71
2022/01/30 04:16:22;;;;;;;;;;;23.70;47.50;;;;;;1545178;76;693;-72
2022/01/30 04:18:24;;;;;;;;;;;23.70;47.50;;;;;;1526886;78;794;-75
2022/01/30 04:20:26;;;;;;;;;;;23.70;47.40;;;;;;1528240;76;784;-71
2022/01/30 04:22:28;;;;;;;;;;;23.70;47.30;;;;;;1526906;78;681;-71
2022/01/30 04:24:30;;;;;;;;;;;23.70;47.30;;;;;;1526842;78;1151;-71
2022/01/30 04:26:32;;;;;;;;;;;23.80;47.30;;;;;;1526835;78;1924;-71
2022/01/30 04:28:34;;;;;;;;;;;23.70;47.20;;;;;;1548490;76;751;-72
2022/01/30 04:30:36;;;;;;;;;;;23.70;47.20;;;;;;1552844;76;686;-71
2022/01/30 04:32:42;;;;;;;;;;;23.70;47.10;;;;;;1553000;76;1133;-71
2022/01/30 04:34:44;;;;;;;;;;;23.70;47.10;;;;;;1552294;76;1627;-75
2022/01/30 04:37:16;;;;;;;;;;;23.70;47.10;;;;;;1551366;76;1529;-70
2022/01/30 04:39:02;;;;;;;;;;;23.80;47.10;;;;;;1551450;76;1425;-71
2022/01/30 04:56:17;;;;;;;;;;;23.80;47.00;;;;;;1548126;76;1183;-71
2022/01/30 05:07:49;;;;;;;;;;;23.70;46.90;;;;;;1553027;76;882;-69
2022/01/30 05:09:51;;;;;;;;;;;23.80;47.00;;;;;;1552877;75;761;-69
2022/01/30 05:11:54;;;;;;;;;;;23.80;46.90;;;;;;1553031;76;791;-69
2022/01/30 05:13:56;;;;;;;;;;;23.80;46.90;;;;;;1552960;76;1169;-72
2022/01/30 05:15:58;;;;;;;;;;;23.80;46.70;;;;;;1552527;76;789;-71
2022/01/30 05:18:00;;;;;;;;;;;23.80;46.70;;;;;;1552981;76;741;-71
2022/01/30 05:20:03;;;;;;;;;;;23.90;46.70;;;;;;1552444;76;772;-72
2022/01/30 05:22:06;;;;;;;;;;;23.90;46.70;;;;;;1553001;76;698;-68
2022/01/30 05:24:08;;;;;;;;;;;23.90;46.80;;;;;;1552946;76;1270;-69
2022/01/30 05:26:10;;;;;;;;;;;23.80;46.50;;;;;;1552757;76;1941;-68
2022/01/30 05:28:12;;;;;;;;;;;23.80;46.50;;;;;;1552524;76;727;-69
2022/01/30 05:30:14;;;;;;;;;;;23.90;46.60;;;;;;1553010;76;710;-69
2022/01/30 05:32:16;;;;;;;;;;;23.90;46.50;;;;;;1553024;76;741;-69
2022/01/30 05:34:18;;;;;;;;;;;23.90;46.50;;;;;;1552973;76;1121;-69
2022/01/30 05:36:20;;;;;;;;;;;23.90;46.50;;;;;;1552405;76;711;-71
2022/01/30 05:38:23;;;;;;;;;;;23.90;46.50;;;;;;1552906;76;726;-70
2022/01/30 05:40:25;;;;;;;;;;;23.90;46.40;;;;;;1552984;76;682;-70
2022/01/30 05:42:28;;;;;;;;;;;23.90;46.40;;;;;;1552924;76;728;-70
2022/01/30 05:46:53;;;;;;;;;;;23.90;46.30;;;;;;1549654;76;1900;-70
2022/01/30 05:48:53;;;;;;;;;;;23.90;46.30;;;;;;1552041;76;1606;-70
2022/01/30 05:50:55;;;;;;;;;;;23.90;46.30;;;;;;1552980;76;697;-71
2022/01/30 05:52:57;;;;;;;;;;;23.90;46.30;;;;;;1552982;76;1134;-71
2022/01/30 05:54:59;;;;;;;;;;;23.90;46.30;;;;;;1552907;76;705;-70
2022/01/30 05:57:01;;;;;;;;;;;23.90;46.30;;;;;;1553071;76;711;-66
2022/01/30 05:59:03;;;;;;;;;;;23.90;46.30;;;;;;1534875;76;656;-70
2022/01/30 06:01:05;;;;;;;;;;;23.90;46.30;;;;;;1526919;77;794;-70
2022/01/30 06:03:07;;;;;;;;;;;23.90;46.30;;;;;;1526925;78;1170;-70
2022/01/30 06:05:09;;;;;;;;;;;24.00;46.20;;;;;;1526753;78;799;-73
2022/01/30 06:07:12;;;;;;;;;;;23.90;46.20;;;;;;1531178;76;1913;-71
2022/01/30 06:11:21;;;;;;;;;;;24.00;46.10;;;;;;1552894;76;859;-70
2022/01/30 06:13:22;;;;;;;;;;;24.00;46.20;;;;;;1531359;77;1156;-70
2022/01/30 06:15:24;;;;;;;;;;;24.00;46.20;;;;;;1552971;76;773;-71
2022/01/30 06:17:26;;;;;;;;;;;24.00;46.20;;;;;;1552644;76;719;-71
2022/01/30 06:19:28;;;;;;;;;;;23.90;46.20;;;;;;1552558;76;671;-70
2022/01/30 06:21:30;;;;;;;;;;;24.00;46.10;;;;;;1552839;76;792;-71
2022/01/30 06:23:32;;;;;;;;;;;24.00;46.10;;;;;;1553087;76;1169;-74
2022/01/30 06:25:34;;;;;;;;;;;24.00;46.10;;;;;;1552408;75;722;-75
2022/01/30 06:27:36;;;;;;;;;;;24.00;46.20;;;;;;1552074;75;1951;-72
2022/01/30 06:29:38;;;;;;;;;;;24.00;46.10;;;;;;1555141;75;652;-71
2022/01/30 06:31:40;;;;;;;;;;;24.00;46.20;;;;;;1553844;75;805;-70
2022/01/30 06:33:42;;;;;;;;;;;24.00;46.10;;;;;;1552328;75;1093;-71
2022/01/30 06:35:43;;;;;;;;;;;24.00;46.20;;;;;;1552711;75;731;-71
2022/01/30 06:37:45;;;;;;;;;;;24.00;46.10;;;;;;1552144;75;809;-72
2022/01/30 06:39:47;;;;;;;;;;;24.10;46.30;;;;;;1552693;75;700;-72
2022/01/30 06:41:49;;;;;;;;;;;24.00;46.00;;;;;;1552750;75;803;-73
2022/01/30 06:43:51;;;;;;;;;;;24.00;46.00;;;;;;1552726;75;1138;-75
2022/01/30 06:45:55;;;;;;;;;;;24.00;46.00;;;;;;1552235;75;754;-71
2022/01/30 06:47:56;;;;;;;;;;;24.10;46.00;;;;;;1558192;75;1906;-70
2022/01/30 06:49:58;;;;;;;;;;;24.00;45.80;;;;;;1556086;75;748;-71
2022/01/30 06:52:00;;;;;;;;;;;24.00;45.90;;;;;;1559636;75;778;-71
2022/01/30 06:54:02;;;;;;;;;;;24.00;45.90;;;;;;1558631;75;1285;-71
2022/01/30 06:56:04;;;;;;;;;;;24.10;46.00;;;;;;1555124;75;822;-75
2022/01/30 06:58:06;;;;;;;;;;;24.00;45.80;;;;;;1558869;75;806;-76
2022/01/30 07:00:09;;;;;;;;;;;24.00;45.80;;;;;;1557602;75;818;-72
2022/01/30 07:02:11;;;;;;;;;;;24.00;45.80;;;;;;1558389;75;776;-71
2022/01/30 07:04:13;;;;;;;;;;;24.00;45.80;;;;;;1556427;73;2091;-73
2022/01/30 07:06:16;;;;;;;;;;;24.10;45.90;;;;;;1533354;75;927;-74
2022/01/30 07:08:18;;;;;;;;;;;24.00;46.00;;;;;;1537021;75;1885;-74
2022/01/30 07:10:21;;;;;;;;;;;24.10;46.00;;;;;;1516273;76;738;-73
2022/01/30 07:12:23;;;;;;;;;;;24.10;46.00;;;;;;1517892;76;1643;-73
2022/01/30 07:14:25;;;;;;;;;;;24.10;46.00;;;;;;1516348;77;1188;-74
2022/01/30 07:16:27;;;;;;;;;;;24.00;45.80;;;;;;1542201;77;701;-74
2022/01/30 07:18:29;;;;;;;;;;;24.20;45.90;;;;;;1516708;77;711;-74
2022/01/30 07:20:30;;;;;;;;;;;24.10;45.90;;;;;;1519229;77;613;-75
2022/01/30 07:22:32;;;;;;;;;;;24.20;45.90;;;;;;1517118;78;785;-76
2022/01/30 07:24:34;;;;;;;;;;;24.10;45.90;;;;;;1515084;77;1162;-74
2022/01/30 07:26:36;;;;;;;;;;;24.10;45.80;;;;;;1507691;78;1943;-74
2022/01/30 07:28:38;;;;;;;;;;;24.10;45.80;;;;;;1518931;78;743;-75
2022/01/30 07:30:40;;;;;;;;;;;24.10;45.70;;;;;;1508584;78;725;-72
2022/01/30 07:32:42;;;;;;;;;;;24.10;45.70;;;;;;1546264;77;714;-75
2022/01/30 07:34:45;;;;;;;;;;;24.10;45.60;;;;;;1543497;75;1050;-74
2022/01/30 07:36:47;;;;;;;;;;;24.10;45.60;;;;;;1544015;77;713;-74
2022/01/30 07:38:48;;;;;;;;;;;24.10;45.70;;;;;;1545779;75;775;-75
2022/01/30 07:40:50;;;;;;;;;;;24.10;45.60;;;;;;1540709;77;719;-76
2022/01/30 07:42:52;;;;;;;;;;;24.10;45.60;;;;;;1539531;77;710;-75
2022/01/30 07:44:54;;;;;;;;;;;24.10;45.60;;;;;;1538684;75;1149;-73
2022/01/30 07:46:56;;;;;;;;;;;24.10;45.70;;;;;;1541057;75;1943;-73
2022/01/30 07:48:58;;;;;;;;;;;24.10;45.70;;;;;;1548473;75;723;-72
2022/01/30 07:51:00;;;;;;;;;;;24.10;45.80;;;;;;1542905;77;773;-75
2022/01/30 07:53:02;;;;;;;;;;;24.10;45.80;;;;;;1546439;76;1150;-74
2022/01/30 07:55:04;;;;;;;;;;;24.10;45.70;;;;;;1539612;77;768;-76
2022/01/30 07:57:06;;;;;;;;;;;24.10;45.60;;;;;;1536765;77;740;-77
2022/01/30 07:59:07;;;;;;;;;;;24.20;45.50;;;;;;1539615;75;731;-75
2022/01/30 08:01:09;;;;;;;;;;;24.10;45.50;;;;;;1541506;75;710;-75
2022/01/30 08:03:11;;;;;;;;;;;24.20;45.50;;;;;;1541155;76;1158;-76
2022/01/30 08:05:13;;;;;;;;;;;24.10;45.50;;;;;;1542920;77;738;-75
2022/01/30 08:07:15;;;;;;;;;;;24.10;45.50;;;;;;1542470;75;1931;-71
2022/01/30 08:09:17;;;;;;;;;;;24.10;45.40;;;;;;1542951;75;783;-76
2022/01/30 08:11:19;;;;;;;;;;;24.10;45.40;;;;;;1548304;75;672;-75
2022/01/30 08:13:20;;;;;;;;;;;24.10;45.40;;;;;;1543068;77;1139;-75
2022/01/30 08:15:22;;;;;;;;;;;24.20;45.40;;;;;;1544117;77;720;-75
2022/01/30 08:17:24;;;;;;;;;;;24.10;45.30;;;;;;1545019;75;723;-75
2022/01/30 08:19:26;;;;;;;;;;;24.20;45.30;;;;;;1547939;75;688;-75
2022/01/30 08:21:28;;;;;;;;;;;24.10;45.20;;;;;;1538814;77;712;-75
2022/01/30 08:23:32;;;;;;;;;;;24.20;45.20;;;;;;1538770;76;1130;-75
2022/01/30 08:25:34;;;;;;;;;;;24.20;45.20;;;;;;1543053;77;723;-75
2022/01/30 08:27:35;;;;;;;;;;;24.20;45.20;;;;;;1544201;77;1932;-77
2022/01/30 08:29:38;;;;;;;;;;;24.20;45.20;;;;;;1548809;75;760;-77
2022/01/30 08:31:39;;;;;;;;;;;24.20;45.20;;;;;;1542304;77;755;-73
2022/01/30 08:33:41;;;;;;;;;;;24.20;45.10;;;;;;1541052;75;1133;-73
2022/01/30 08:35:43;;;;;;;;;;;24.20;45.10;;;;;;1544436;77;766;-74
2022/01/30 08:37:45;;;;;;;;;;;24.20;45.10;;;;;;1537553;75;706;-75
2022/01/30 08:39:47;;;;;;;;;;;24.10;45.10;;;;;;1547984;77;729;-77
2022/01/30 08:41:49;;;;;;;;;;;24.20;45.10;;;;;;1543112;77;722;-75
2022/01/30 08:43:51;;;;;;;;;;;24.20;45.00;;;;;;1547661;75;1168;-75
2022/01/30 08:45:53;;;;;;;;;;;24.20;45.10;;;;;;1547323;75;725;-78
2022/01/30 08:47:55;;;;;;;;;;;24.20;45.10;;;;;;1549955;75;1909;-75
2022/01/30 08:49:57;;;;;;;;;;;24.20;45.10;;;;;;1535913;75;715;-75
2022/01/30 08:51:59;;;;;;;;;;;24.20;45.00;;;;;;1549395;75;722;-74
2022/01/30 08:54:01;;;;;;;;;;;24.20;45.00;;;;;;1550481;75;1237;-74
2022/01/30 08:56:03;;;;;;;;;;;24.20;45.00;;;;;;1531309;75;731;-74
2022/01/30 08:58:07;;;;;;;;;;;24.20;45.00;;;;;;1544352;75;756;-74
2022/01/30 09:00:10;;;;;;;;;;;24.20;45.00;;;;;;1549233;75;1218;-74
2022/01/30 09:02:12;;;;;;;;;;;24.20;45.00;;;;;;1543078;77;1050;-74
2022/01/30 09:04:14;;;;;;;;;;;24.20;45.00;;;;;;1547551;77;1135;-74
2022/01/30 09:06:17;;;;;;;;;;;24.20;45.00;;;;;;1548105;75;718;-74
2022/01/30 09:08:18;;;;;;;;;;;24.20;45.00;;;;;;1547503;77;1923;-74
2022/01/30 09:10:20;;;;;;;;;;;24.20;45.00;;;;;;1548303;75;696;-74
2022/01/30 09:12:22;;;;;;;;;;;24.10;45.00;;;;;;1567795;75;672;-74
2022/01/30 09:14:26;;;;;;;;;;;24.20;45.00;;;;;;1568295;74;1168;-74
2022/01/30 09:16:28;;;;;;;;;;;24.20;45.00;;;;;;1567872;76;929;-73
2022/01/30 09:18:30;;;;;;;;;;;24.10;45.00;;;;;;1549116;76;784;-74
2022/01/30 09:20:32;;;;;;;;;;;24.10;45.00;;;;;;1546262;75;723;-74
2022/01/30 09:22:34;;;;;;;;;;;24.10;45.00;;;;;;1519340;78;720;-74
2022/01/30 09:24:36;;;;;;;;;;;24.20;45.00;;;;;;1516115;77;1178;-74
2022/01/30 09:26:38;;;;;;;;;;;24.20;45.00;;;;;;1534578;77;601;-74
2022/01/30 09:28:40;;;;;;;;;;;24.10;45.00;;;;;;1546865;75;1936;-72
2022/01/30 09:30:41;;;;;;;;;;;24.20;45.00;;;;;;1546479;75;757;-74
2022/01/30 09:32:43;;;;;;;;;;;24.20;45.00;;;;;;1548945;75;602;-73
2022/01/30 09:34:45;;;;;;;;;;;24.20;45.00;;;;;;1546291;75;1102;-74
2022/01/30 09:36:47;;;;;;;;;;;24.20;44.90;;;;;;1540451;75;885;-74
2022/01/30 09:38:50;;;;;;;;;;;24.20;45.00;;;;;;1538099;75;720;-74
2022/01/30 09:40:54;;;;;;;;;;;24.20;44.90;;;;;;1529588;75;711;-73
2022/01/30 09:42:56;;;;;;;;;;;24.20;45.00;;;;;;1526556;75;1148;-75
2022/01/30 09:45:04;;;;;;;;;;;24.20;45.00;;;;;;1531878;75;784;-75
2022/01/30 09:47:02;;;;;;;;;;;24.20;44.90;;;;;;1530610;75;1071;-75
2022/01/30 09:49:04;;;;;;;;;;;24.10;45.00;;;;;;1530474;75;1946;-75
2022/01/30 09:51:07;;;;;;;;;;;24.20;44.90;;;;;;1536290;77;713;-73
2022/01/30 09:53:09;;;;;;;;;;;24.20;44.90;;;;;;1549155;77;1095;-75
2022/01/30 09:55:11;;;;;;;;;;;24.20;44.90;;;;;;1549274;77;599;-75
2022/01/30 09:57:13;;;;;;;;;;;24.20;44.90;;;;;;1549146;77;711;-75
2022/01/30 09:59:15;;;;;;;;;;;24.20;44.90;;;;;;1549183;76;731;-73
2022/01/30 10:01:17;;;;;;;;;;;24.20;44.90;;;;;;1549242;77;739;-75
2022/01/30 10:03:22;;;;;;;;;;;24.20;44.80;;;;;;1549133;75;1140;-73
2022/01/30 10:05:24;;;;;;;;;;;24.20;44.90;;;;;;1547455;75;778;-74
2022/01/30 10:07:40;;;;;;;;;;;24.20;44.90;;;;;;1535389;76;1939;-73
2022/01/30 10:09:47;;;;;;;;;;;24.20;44.90;;;;;;1533895;77;1023;-74
2022/01/30 10:11:51;;;;;;;;;;;24.20;44.90;;;;;;1547928;76;1126;-73
2022/01/30 10:13:53;;;;;;;;;;;24.20;44.90;;;;;;1536440;75;1177;-75
2022/01/30 10:15:56;;;;;;;;;;;24.20;45.00;;;;;;1534375;75;949;-74
2022/01/30 10:17:58;;;;;;;;;;;24.20;45.10;;;;;;1524222;75;735;-74
2022/01/30 10:20:01;;;;;;;;;;;24.30;45.20;;;;;;1496942;78;752;-73
2022/01/30 10:22:04;;;;;;;;;;;24.20;45.20;;;;;;1528151;75;779;-73
2022/01/30 10:24:22;;;;;;;;;;;24.20;45.20;;;;;;1523173;75;1179;-74
2022/01/30 10:26:30;;;;;;;;;;;24.20;45.20;;;;;;1536491;75;730;-74
2022/01/30 10:28:32;;;;;;;;;;;24.20;45.20;;;;;;1524559;75;1936;-74
2022/01/30 10:30:41;;;;;;;;;;;24.20;45.20;;;;;;1527939;75;725;-74
2022/01/30 10:32:44;;;;;;;;;;;24.20;45.20;;;;;;1532290;75;739;-74
2022/01/30 10:34:46;;;;;;;;;;;24.20;45.30;;;;;;1492166;78;1084;-74
2022/01/30 10:36:48;;;;;;;;;;;24.30;45.40;;;;;;1517482;77;1176;-74
2022/01/30 10:39:00;;;;;;;;;;;24.30;45.40;;;;;;1534353;75;657;-73
2022/01/30 10:41:14;;;;;;;;;;;24.20;45.20;;;;;;1531819;75;706;-73
2022/01/30 10:43:06;;;;;;;;;;;24.20;45.20;;;;;;1533945;75;1163;-73
2022/01/30 10:45:16;;;;;;;;;;;24.30;45.40;;;;;;1539238;75;705;-73
2022/01/30 10:47:19;;;;;;;;;;;24.20;45.20;;;;;;1534807;75;971;-73
2022/01/30 10:49:22;;;;;;;;;;;24.20;45.30;;;;;;1530218;75;1943;-73
2022/01/30 10:51:24;;;;;;;;;;;24.30;45.40;;;;;;1526270;75;720;-74
2022/01/30 10:53:26;;;;;;;;;;;24.30;45.40;;;;;;1526628;75;1123;-74
2022/01/30 10:55:38;;;;;;;;;;;24.30;45.40;;;;;;1527968;75;947;-73
2022/01/30 10:57:40;;;;;;;;;;;24.30;45.30;;;;;;1535980;75;762;-68
2022/01/30 10:59:42;;;;;;;;;;;24.30;45.30;;;;;;1531579;75;759;-68
2022/01/30 11:01:45;;;;;;;;;;;24.30;45.40;;;;;;1535922;75;720;-73
2022/01/30 11:03:50;;;;;;;;;;;24.30;45.50;;;;;;1530905;75;1098;-71
2022/01/30 11:05:54;;;;;;;;;;;24.30;45.50;;;;;;1527672;75;1640;-73
2022/01/30 11:07:57;;;;;;;;;;;24.30;45.60;;;;;;1525340;75;1920;-72
2022/01/30 11:10:05;;;;;;;;;;;24.30;45.70;;;;;;1531720;75;738;-73
2022/01/30 11:12:09;;;;;;;;;;;24.30;45.80;;;;;;1527509;75;1161;-68
2022/01/30 11:18:32;;;;;;;;;;;24.30;46.20;;;;;;1536431;75;1635;-69
2022/01/30 11:20:34;;;;;;;;;;;24.30;46.00;;;;;;1533440;75;658;-69
2022/01/30 11:22:36;;;;;;;;;;;24.30;46.00;;;;;;1535635;75;797;-68
2022/01/30 11:24:45;;;;;;;;;;;24.30;45.70;;;;;;1547613;77;1151;-70
2022/01/30 11:26:47;;;;;;;;;;;24.30;45.50;;;;;;1547476;75;721;-73
2022/01/30 11:28:49;;;;;;;;;;;24.30;45.30;;;;;;1534131;75;1936;-71
2022/01/30 11:30:51;;;;;;;;;;;24.30;45.40;;;;;;1534530;75;786;-70
2022/01/30 11:32:53;;;;;;;;;;;24.30;45.50;;;;;;1525076;75;698;-69
2022/01/30 11:34:55;;;;;;;;;;;24.30;45.70;;;;;;1537922;75;1131;-70
2022/01/30 11:36:57;;;;;;;;;;;24.30;45.90;;;;;;1532343;75;719;-70
2022/01/30 11:39:00;;;;;;;;;;;24.30;46.10;;;;;;1535972;75;746;-71
2022/01/30 11:41:17;;;;;;;;;;;24.30;46.10;;;;;;1537416;75;714;-72
2022/01/30 11:43:22;;;;;;;;;;;24.30;46.00;;;;;;1530634;75;1141;-68
2022/01/30 11:45:27;;;;;;;;;;;24.30;45.90;;;;;;1529951;75;1620;-72
2022/01/30 11:47:28;;;;;;;;;;;24.30;45.80;;;;;;1528823;75;1586;-71
2022/01/30 11:49:40;;;;;;;;;;;24.30;46.00;;;;;;1531745;75;1946;-72
2022/01/30 11:51:49;;;;;;;;;;;24.30;46.00;;;;;;1528166;75;732;-73
2022/01/30 11:53:51;;;;;;;;;;;24.40;46.00;;;;;;1527367;75;1149;-72
2022/01/30 11:55:57;;;;;;;;;;;24.40;46.00;;;;;;1539549;75;722;-72
2022/01/30 11:57:59;;;;;;;;;;;24.40;46.00;;;;;;1537503;75;724;-69
2022/01/30 12:00:01;;;;;;;;;;;24.40;45.70;;;;;;1535090;75;704;-71
2022/01/30 12:02:21;;;;;;;;;;;24.40;45.50;;;;;;1537965;75;683;-71
2022/01/30 12:04:25;;;;;;;;;;;24.40;45.20;;;;;;1535998;75;1144;-73
2022/01/30 12:06:28;;;;;;;;;;;24.40;45.20;;;;;;1535167;75;1151;-70
2022/01/30 12:08:45;;;;;;;;;;;24.40;45.20;;;;;;1535404;75;1929;-72
2022/01/30 12:10:47;;;;;;;;;;;24.40;45.20;;;;;;1535393;75;892;-72
2022/01/30 12:12:50;;;;;;;;;;;24.40;45.10;;;;;;1535564;75;810;-72
2022/01/30 12:14:52;;;;;;;;;;;24.30;45.10;;;;;;1534758;75;1055;-72
2022/01/30 12:16:56;;;;;;;;;;;24.40;45.00;;;;;;1537609;75;761;-73
2022/01/30 12:18:58;;;;;;;;;;;24.30;44.90;;;;;;1536613;75;782;-72
2022/01/30 12:21:01;;;;;;;;;;;24.30;44.80;;;;;;1533393;75;707;-73
2022/01/30 12:23:03;;;;;;;;;;;24.30;44.70;;;;;;1538733;75;1146;-73
2022/01/30 12:25:06;;;;;;;;;;;24.30;44.60;;;;;;1534614;75;723;-72
2022/01/30 12:27:08;;;;;;;;;;;24.20;44.30;;;;;;1529727;75;977;-70
2022/01/30 12:29:11;;;;;;;;;;;24.30;44.30;;;;;;1539227;75;1949;-73
2022/01/30 12:31:36;;;;;;;;;;;24.20;44.10;;;;;;1503487;77;1153;-73
2022/01/30 12:33:36;;;;;;;;;;;24.20;43.90;;;;;;1528050;75;1134;-73
2022/01/30 12:35:39;;;;;;;;;;;24.20;43.80;;;;;;1533703;75;743;-73
2022/01/30 12:37:41;;;;;;;;;;;24.20;43.70;;;;;;1529163;75;1037;-73
2022/01/30 12:39:43;;;;;;;;;;;24.10;43.60;;;;;;1525029;75;1143;-73
2022/01/30 12:41:45;;;;;;;;;;;24.10;43.40;;;;;;1527012;75;779;-73
2022/01/30 12:43:48;;;;;;;;;;;24.10;43.40;;;;;;1526873;75;1126;-73
2022/01/30 12:45:50;;;;;;;;;;;24.10;43.30;;;;;;1527930;75;1142;-73
2022/01/30 12:47:53;;;;;;;;;;;24.00;43.10;;;;;;1513904;77;1244;-74
2022/01/30 12:49:58;;;;;;;;;;;24.10;43.10;;;;;;1528155;75;1922;-74
2022/01/30 12:51:59;;;;;;;;;;;24.10;42.90;;;;;;1527543;75;1120;-72
2022/01/30 12:54:01;;;;;;;;;;;24.10;42.70;;;;;;1530146;75;1164;-73
2022/01/30 12:56:03;;;;;;;;;;;24.00;42.50;;;;;;1526987;75;718;-73
2022/01/30 12:58:06;;;;;;;;;;;24.00;42.40;;;;;;1528133;75;749;-72
2022/01/30 13:00:08;;;;;;;;;;;24.00;42.50;;;;;;1525050;75;752;-70
2022/01/30 13:02:10;;;;;;;;;;;24.10;42.50;;;;;;1533864;75;714;-70
2022/01/30 13:04:16;;;;;;;;;;;24.00;42.10;;;;;;1527629;75;1143;-71
2022/01/30 13:06:19;;;;;;;;;;;24.00;42.10;;;;;;1543411;75;898;-70
2022/01/30 13:08:21;;;;;;;;;;;23.90;42.00;;;;;;1533087;77;1141;-71